Applegate, Michigan
Current Conditions -  °F | °C
As of 8:00 PM on Monday 22 Dec 2014 (Local Time) from CYZR Reporting Station
Overcast Overcast  
Wind Chill: 24°   Ceiling: 17000
Heat Index: 32°   Visibility: NA
Dew Point: 28°   Wind: 10mph
Humidity: 87%   Direction: 120°ESE
Pressure: 29.95"   Gusts: NA
Location:  43.36°N, 82.64°W
Report Text: CYZR 230100Z AUTO 12009KT FEW130 BKN170 OVC240 00/M02 A2995 RMK WX MISG VIS MISG PCPN MISG SLP151
Loading
Personal Weather Stations






























Interactive Weather Map New forecast layout! Learn more

10-Day Weather Forecast

Advertisements
Track Severe Weather on mobile